Aviation Digital Data Service (ADDS)

Output produced by METARs form (1356 UTC 01 November 2014)
found at http://aviationweather.gov/adds/metars/
 
KBPT 011353Z 05011KT 10SM CLR 10/00 A3042 RMK AO2 SLP301 T01000000